sensor_id;sensor_type;location;lat;lon;timestamp;temperature;humidity
44851;DHT22;30583;48.714;9.386;2022-10-23T00:01:28;13.80;76.50
44851;DHT22;30583;48.714;9.386;2022-10-23T00:03:58;13.70;77.10
44851;DHT22;30583;48.714;9.386;2022-10-23T00:06:24;13.60;77.50
44851;DHT22;30583;48.714;9.386;2022-10-23T00:08:50;13.50;77.40
44851;DHT22;30583;48.714;9.386;2022-10-23T00:11:18;13.50;77.50
44851;DHT22;30583;48.714;9.386;2022-10-23T00:13:45;13.50;77.80
44851;DHT22;30583;48.714;9.386;2022-10-23T00:16:11;13.40;78.00
44851;DHT22;30583;48.714;9.386;2022-10-23T00:18:38;13.30;78.50
44851;DHT22;30583;48.714;9.386;2022-10-23T00:21:05;13.40;78.60
44851;DHT22;30583;48.714;9.386;2022-10-23T00:23:31;13.60;77.20
44851;DHT22;30583;48.714;9.386;2022-10-23T00:25:56;13.70;76.40
44851;DHT22;30583;48.714;9.386;2022-10-23T00:28:22;13.40;77.40
44851;DHT22;30583;48.714;9.386;2022-10-23T00:30:47;13.50;76.90
44851;DHT22;30583;48.714;9.386;2022-10-23T00:33:13;13.50;76.60
44851;DHT22;30583;48.714;9.386;2022-10-23T00:35:39;13.60;76.70
44851;DHT22;30583;48.714;9.386;2022-10-23T00:38:05;13.30;77.10
44851;DHT22;30583;48.714;9.386;2022-10-23T00:40:31;13.40;77.40
44851;DHT22;30583;48.714;9.386;2022-10-23T00:42:57;13.20;77.70
44851;DHT22;30583;48.714;9.386;2022-10-23T00:45:24;13.30;77.50
44851;DHT22;30583;48.714;9.386;2022-10-23T00:47:52;13.20;77.30
44851;DHT22;30583;48.714;9.386;2022-10-23T00:50:19;13.20;77.40
44851;DHT22;30583;48.714;9.386;2022-10-23T00:52:48;13.20;77.80
44851;DHT22;30583;48.714;9.386;2022-10-23T00:55:17;13.20;77.70
44851;DHT22;30583;48.714;9.386;2022-10-23T00:57:44;13.10;77.90
44851;DHT22;30583;48.714;9.386;2022-10-23T01:00:23;13.20;77.70
44851;DHT22;30583;48.714;9.386;2022-10-23T01:02:49;13.30;77.20
44851;DHT22;30583;48.714;9.386;2022-10-23T01:05:15;13.20;77.50
44851;DHT22;30583;48.714;9.386;2022-10-23T01:10:33;13.20;77.40
44851;DHT22;30583;48.714;9.386;2022-10-23T01:13:07;13.20;77.30
44851;DHT22;30583;48.714;9.386;2022-10-23T01:15:43;13.20;77.50
44851;DHT22;30583;48.714;9.386;2022-10-23T01:21:22;13.10;77.70
44851;DHT22;30583;48.714;9.386;2022-10-23T01:29:43;13.30;76.70
44851;DHT22;30583;48.714;9.386;2022-10-23T01:32:17;13.20;76.70
44851;DHT22;30583;48.714;9.386;2022-10-23T01:34:51;13.10;77.50
44851;DHT22;30583;48.714;9.386;2022-10-23T01:37:33;13.00;77.50
44851;DHT22;30583;48.714;9.386;2022-10-23T01:40:02;12.80;77.40
44851;DHT22;30583;48.714;9.386;2022-10-23T01:42:35;12.90;77.10
44851;DHT22;30583;48.714;9.386;2022-10-23T01:45:07;12.70;77.70
44851;DHT22;30583;48.714;9.386;2022-10-23T01:47:35;12.90;76.80
44851;DHT22;30583;48.714;9.386;2022-10-23T01:50:03;12.90;77.10
44851;DHT22;30583;48.714;9.386;2022-10-23T01:52:29;12.90;77.00
44851;DHT22;30583;48.714;9.386;2022-10-23T01:54:59;12.60;77.70
44851;DHT22;30583;48.714;9.386;2022-10-23T01:57:27;12.70;77.50
44851;DHT22;30583;48.714;9.386;2022-10-23T02:00:14;12.80;77.20
44851;DHT22;30583;48.714;9.386;2022-10-23T02:02:41;12.80;77.30
44851;DHT22;30583;48.714;9.386;2022-10-23T02:05:18;12.70;77.60
44851;DHT22;30583;48.714;9.386;2022-10-23T02:07:45;12.60;78.10
44851;DHT22;30583;48.714;9.386;2022-10-23T02:10:11;12.50;78.60
44851;DHT22;30583;48.714;9.386;2022-10-23T02:12:49;12.60;78.10
44851;DHT22;30583;48.714;9.386;2022-10-23T02:15:25;12.60;78.00
44851;DHT22;30583;48.714;9.386;2022-10-23T02:20:54;12.40;78.00
44851;DHT22;30583;48.714;9.386;2022-10-23T02:23:41;12.60;77.80
44851;DHT22;30583;48.714;9.386;2022-10-23T02:26:24;12.70;77.20
44851;DHT22;30583;48.714;9.386;2022-10-23T02:28:55;12.60;77.30
44851;DHT22;30583;48.714;9.386;2022-10-23T02:31:22;12.60;77.90
44851;DHT22;30583;48.714;9.386;2022-10-23T02:33:48;12.40;77.60
44851;DHT22;30583;48.714;9.386;2022-10-23T02:36:15;12.10;78.40
44851;DHT22;30583;48.714;9.386;2022-10-23T02:38:43;12.30;78.20
44851;DHT22;30583;48.714;9.386;2022-10-23T02:43:40;12.60;77.00
44851;DHT22;30583;48.714;9.386;2022-10-23T02:46:23;12.50;77.00
44851;DHT22;30583;48.714;9.386;2022-10-23T02:49:13;12.30;77.70
44851;DHT22;30583;48.714;9.386;2022-10-23T02:57:30;12.30;77.60
44851;DHT22;30583;48.714;9.386;2022-10-23T03:00:07;12.30;77.40
44851;DHT22;30583;48.714;9.386;2022-10-23T03:02:43;12.40;77.30
44851;DHT22;30583;48.714;9.386;2022-10-23T03:05:13;12.20;77.60
44851;DHT22;30583;48.714;9.386;2022-10-23T03:07:39;12.20;77.60
44851;DHT22;30583;48.714;9.386;2022-10-23T03:10:06;12.20;77.70
44851;DHT22;30583;48.714;9.386;2022-10-23T03:12:33;12.20;77.40
44851;DHT22;30583;48.714;9.386;2022-10-23T03:14:59;12.20;77.50
44851;DHT22;30583;48.714;9.386;2022-10-23T03:17:24;12.10;78.30
44851;DHT22;30583;48.714;9.386;2022-10-23T03:19:50;12.30;77.80
44851;DHT22;30583;48.714;9.386;2022-10-23T03:22:16;12.50;77.00
44851;DHT22;30583;48.714;9.386;2022-10-23T03:24:41;12.40;77.30
44851;DHT22;30583;48.714;9.386;2022-10-23T03:27:07;12.50;77.00
44851;DHT22;30583;48.714;9.386;2022-10-23T03:29:33;12.70;76.80
44851;DHT22;30583;48.714;9.386;2022-10-23T03:31:58;12.60;76.70
44851;DHT22;30583;48.714;9.386;2022-10-23T03:34:24;12.50;77.00
44851;DHT22;30583;48.714;9.386;2022-10-23T03:36:50;12.30;77.70
44851;DHT22;30583;48.714;9.386;2022-10-23T03:39:16;12.40;77.50
44851;DHT22;30583;48.714;9.386;2022-10-23T03:41:41;12.40;77.50
44851;DHT22;30583;48.714;9.386;2022-10-23T03:44:07;12.40;77.50
44851;DHT22;30583;48.714;9.386;2022-10-23T03:46:33;12.60;77.00
44851;DHT22;30583;48.714;9.386;2022-10-23T03:48:58;12.20;77.60
44851;DHT22;30583;48.714;9.386;2022-10-23T03:51:24;12.20;78.00
44851;DHT22;30583;48.714;9.386;2022-10-23T03:53:50;12.40;77.50
44851;DHT22;30583;48.714;9.386;2022-10-23T03:56:16;12.60;77.00
44851;DHT22;30583;48.714;9.386;2022-10-23T03:58:41;12.60;77.10
44851;DHT22;30583;48.714;9.386;2022-10-23T04:01:08;12.50;77.30
44851;DHT22;30583;48.714;9.386;2022-10-23T04:03:33;12.40;77.50
44851;DHT22;30583;48.714;9.386;2022-10-23T04:05:59;12.20;78.50
44851;DHT22;30583;48.714;9.386;2022-10-23T04:08:24;12.10;78.90
44851;DHT22;30583;48.714;9.386;2022-10-23T04:10:50;12.30;78.40
44851;DHT22;30583;48.714;9.386;2022-10-23T04:13:16;12.40;78.10
44851;DHT22;30583;48.714;9.386;2022-10-23T04:15:50;12.30;77.60
44851;DHT22;30583;48.714;9.386;2022-10-23T04:18:16;12.20;78.40
44851;DHT22;30583;48.714;9.386;2022-10-23T04:20:42;12.40;78.20
44851;DHT22;30583;48.714;9.386;2022-10-23T04:23:08;12.40;77.80
44851;DHT22;30583;48.714;9.386;2022-10-23T04:25:33;12.30;77.80
44851;DHT22;30583;48.714;9.386;2022-10-23T04:27:59;12.20;78.50
44851;DHT22;30583;48.714;9.386;2022-10-23T04:30:24;12.40;78.30
44851;DHT22;30583;48.714;9.386;2022-10-23T04:32:50;12.50;77.80
44851;DHT22;30583;48.714;9.386;2022-10-23T04:35:17;12.50;77.60
44851;DHT22;30583;48.714;9.386;2022-10-23T04:37:43;12.40;78.10
44851;DHT22;30583;48.714;9.386;2022-10-23T04:40:08;12.20;78.80
44851;DHT22;30583;48.714;9.386;2022-10-23T04:42:34;12.30;78.60
44851;DHT22;30583;48.714;9.386;2022-10-23T04:45:00;12.20;78.50
44851;DHT22;30583;48.714;9.386;2022-10-23T04:47:25;12.30;78.60
44851;DHT22;30583;48.714;9.386;2022-10-23T04:49:51;12.20;79.00
44851;DHT22;30583;48.714;9.386;2022-10-23T04:52:16;12.40;78.70
44851;DHT22;30583;48.714;9.386;2022-10-23T04:54:42;12.40;78.10
44851;DHT22;30583;48.714;9.386;2022-10-23T04:57:07;12.20;78.90
44851;DHT22;30583;48.714;9.386;2022-10-23T04:59:33;12.30;78.60
44851;DHT22;30583;48.714;9.386;2022-10-23T05:01:59;12.20;79.20
44851;DHT22;30583;48.714;9.386;2022-10-23T05:04:24;12.30;78.80
44851;DHT22;30583;48.714;9.386;2022-10-23T05:06:50;12.30;78.90
44851;DHT22;30583;48.714;9.386;2022-10-23T05:09:16;12.40;78.30
44851;DHT22;30583;48.714;9.386;2022-10-23T05:11:41;12.40;78.60
44851;DHT22;30583;48.714;9.386;2022-10-23T05:14:07;12.30;78.80
44851;DHT22;30583;48.714;9.386;2022-10-23T05:16:38;12.30;78.50
44851;DHT22;30583;48.714;9.386;2022-10-23T05:19:08;12.20;79.00
44851;DHT22;30583;48.714;9.386;2022-10-23T05:21:35;12.20;79.40
44851;DHT22;30583;48.714;9.386;2022-10-23T05:24:01;12.20;79.00
44851;DHT22;30583;48.714;9.386;2022-10-23T05:26:28;12.40;78.80
44851;DHT22;30583;48.714;9.386;2022-10-23T05:28:53;12.40;78.40
44851;DHT22;30583;48.714;9.386;2022-10-23T05:31:20;12.20;78.90
44851;DHT22;30583;48.714;9.386;2022-10-23T05:33:47;12.20;79.00
44851;DHT22;30583;48.714;9.386;2022-10-23T05:36:13;12.20;79.40
44851;DHT22;30583;48.714;9.386;2022-10-23T05:38:39;12.70;80.50
44851;DHT22;30583;48.714;9.386;2022-10-23T05:41:05;12.80;78.90
44851;DHT22;30583;48.714;9.386;2022-10-23T05:43:30;12.60;78.70
44851;DHT22;30583;48.714;9.386;2022-10-23T05:45:57;12.60;78.90
44851;DHT22;30583;48.714;9.386;2022-10-23T05:48:23;12.50;79.40
44851;DHT22;30583;48.714;9.386;2022-10-23T05:50:48;12.70;78.60
44851;DHT22;30583;48.714;9.386;2022-10-23T05:53:14;12.70;78.00
44851;DHT22;30583;48.714;9.386;2022-10-23T05:55:39;12.40;78.30
44851;DHT22;30583;48.714;9.386;2022-10-23T05:58:05;12.20;79.40
44851;DHT22;30583;48.714;9.386;2022-10-23T06:00:31;12.60;78.70
44851;DHT22;30583;48.714;9.386;2022-10-23T06:02:59;12.70;78.10
44851;DHT22;30583;48.714;9.386;2022-10-23T06:05:25;12.50;78.10
44851;DHT22;30583;48.714;9.386;2022-10-23T06:07:50;12.20;79.30
44851;DHT22;30583;48.714;9.386;2022-10-23T06:10:16;12.40;79.00
44851;DHT22;30583;48.714;9.386;2022-10-23T06:12:42;12.30;78.60
44851;DHT22;30583;48.714;9.386;2022-10-23T06:15:08;12.30;79.10
44851;DHT22;30583;48.714;9.386;2022-10-23T06:17:34;12.40;78.70
44851;DHT22;30583;48.714;9.386;2022-10-23T06:19:59;12.20;79.50
44851;DHT22;30583;48.714;9.386;2022-10-23T06:22:28;12.20;79.40
44851;DHT22;30583;48.714;9.386;2022-10-23T06:24:53;12.10;79.60
44851;DHT22;30583;48.714;9.386;2022-10-23T06:27:19;12.20;79.90
44851;DHT22;30583;48.714;9.386;2022-10-23T06:29:45;12.20;79.50
44851;DHT22;30583;48.714;9.386;2022-10-23T06:32:10;12.20;79.60
44851;DHT22;30583;48.714;9.386;2022-10-23T06:34:36;12.20;79.50
44851;DHT22;30583;48.714;9.386;2022-10-23T06:37:01;12.20;79.40
44851;DHT22;30583;48.714;9.386;2022-10-23T06:39:27;12.20;79.30
44851;DHT22;30583;48.714;9.386;2022-10-23T06:41:53;12.00;80.10
44851;DHT22;30583;48.714;9.386;2022-10-23T06:44:18;12.20;79.70
44851;DHT22;30583;48.714;9.386;2022-10-23T06:46:44;12.40;79.30
44851;DHT22;30583;48.714;9.386;2022-10-23T06:49:14;12.50;78.90
44851;DHT22;30583;48.714;9.386;2022-10-23T06:51:40;12.40;79.00
44851;DHT22;30583;48.714;9.386;2022-10-23T06:54:06;12.40;79.20
44851;DHT22;30583;48.714;9.386;2022-10-23T06:56:32;12.30;79.70
44851;DHT22;30583;48.714;9.386;2022-10-23T06:58:59;12.50;79.30
44851;DHT22;30583;48.714;9.386;2022-10-23T07:01:25;12.50;79.20
44851;DHT22;30583;48.714;9.386;2022-10-23T07:03:50;12.50;79.40
44851;DHT22;30583;48.714;9.386;2022-10-23T07:06:16;12.50;79.60
44851;DHT22;30583;48.714;9.386;2022-10-23T07:08:41;12.40;79.70
44851;DHT22;30583;48.714;9.386;2022-10-23T07:11:09;12.50;79.70
44851;DHT22;30583;48.714;9.386;2022-10-23T07:13:35;12.60;79.60
44851;DHT22;30583;48.714;9.386;2022-10-23T07:16:14;12.30;80.00
44851;DHT22;30583;48.714;9.386;2022-10-23T07:18:40;12.50;80.00
44851;DHT22;30583;48.714;9.386;2022-10-23T07:21:06;12.70;79.20
44851;DHT22;30583;48.714;9.386;2022-10-23T07:23:32;14.40;87.40
44851;DHT22;30583;48.714;9.386;2022-10-23T07:26:09;17.20;76.10
44851;DHT22;30583;48.714;9.386;2022-10-23T07:28:35;18.10;70.40
44851;DHT22;30583;48.714;9.386;2022-10-23T07:31:00;18.20;67.70
44851;DHT22;30583;48.714;9.386;2022-10-23T07:33:26;18.30;67.50
44851;DHT22;30583;48.714;9.386;2022-10-23T07:35:52;18.40;66.10
44851;DHT22;30583;48.714;9.386;2022-10-23T07:38:17;18.50;65.30
44851;DHT22;30583;48.714;9.386;2022-10-23T07:40:43;18.50;64.60
44851;DHT22;30583;48.714;9.386;2022-10-23T07:43:09;18.50;64.20
44851;DHT22;30583;48.714;9.386;2022-10-23T07:45:35;18.60;63.70
44851;DHT22;30583;48.714;9.386;2022-10-23T07:48:00;18.30;64.20
44851;DHT22;30583;48.714;9.386;2022-10-23T07:50:26;16.70;64.30
44851;DHT22;30583;48.714;9.386;2022-10-23T07:52:51;14.90;70.90
44851;DHT22;30583;48.714;9.386;2022-10-23T07:55:17;14.20;74.40
44851;DHT22;30583;48.714;9.386;2022-10-23T07:57:42;13.90;75.50
44851;DHT22;30583;48.714;9.386;2022-10-23T08:00:10;13.80;76.10
44851;DHT22;30583;48.714;9.386;2022-10-23T08:02:35;13.80;76.50
44851;DHT22;30583;48.714;9.386;2022-10-23T08:05:01;13.90;76.30
44851;DHT22;30583;48.714;9.386;2022-10-23T08:07:27;13.70;76.70
44851;DHT22;30583;48.714;9.386;2022-10-23T08:09:52;13.70;77.10
44851;DHT22;30583;48.714;9.386;2022-10-23T08:12:18;13.70;77.60
44851;DHT22;30583;48.714;9.386;2022-10-23T08:14:43;13.70;77.40
44851;DHT22;30583;48.714;9.386;2022-10-23T08:17:09;13.70;77.80
44851;DHT22;30583;48.714;9.386;2022-10-23T08:19:35;13.70;77.90
44851;DHT22;30583;48.714;9.386;2022-10-23T08:22:01;13.90;77.50
44851;DHT22;30583;48.714;9.386;2022-10-23T08:24:28;13.90;77.70
44851;DHT22;30583;48.714;9.386;2022-10-23T08:26:53;13.80;77.80
44851;DHT22;30583;48.714;9.386;2022-10-23T08:29:19;13.70;78.50
44851;DHT22;30583;48.714;9.386;2022-10-23T08:31:45;13.40;79.10
44851;DHT22;30583;48.714;9.386;2022-10-23T08:34:11;13.60;79.00
44851;DHT22;30583;48.714;9.386;2022-10-23T08:36:36;13.80;78.30
44851;DHT22;30583;48.714;9.386;2022-10-23T08:39:04;13.90;78.70
44851;DHT22;30583;48.714;9.386;2022-10-23T08:41:41;14.10;78.10
44851;DHT22;30583;48.714;9.386;2022-10-23T08:44:18;14.30;77.50
44851;DHT22;30583;48.714;9.386;2022-10-23T08:47:18;14.10;78.00
44851;DHT22;30583;48.714;9.386;2022-10-23T08:49:56;14.20;78.30
44851;DHT22;30583;48.714;9.386;2022-10-23T08:52:35;14.50;77.70
44851;DHT22;30583;48.714;9.386;2022-10-23T08:55:58;14.40;76.90
44851;DHT22;30583;48.714;9.386;2022-10-23T08:58:05;14.40;77.20
44851;DHT22;30583;48.714;9.386;2022-10-23T09:00:32;14.70;76.70
44851;DHT22;30583;48.714;9.386;2022-10-23T09:03:00;14.70;77.80
44851;DHT22;30583;48.714;9.386;2022-10-23T09:05:35;15.00;75.30
44851;DHT22;30583;48.714;9.386;2022-10-23T09:08:22;15.00;75.80
44851;DHT22;30583;48.714;9.386;2022-10-23T09:11:03;15.10;76.10
44851;DHT22;30583;48.714;9.386;2022-10-23T09:16:28;15.50;75.70
44851;DHT22;30583;48.714;9.386;2022-10-23T09:18:56;16.00;74.40
44851;DHT22;30583;48.714;9.386;2022-10-23T09:21:26;16.40;73.00
44851;DHT22;30583;48.714;9.386;2022-10-23T09:23:53;16.70;72.10
44851;DHT22;30583;48.714;9.386;2022-10-23T09:26:19;17.10;71.20
44851;DHT22;30583;48.714;9.386;2022-10-23T09:28:47;17.20;70.00
44851;DHT22;30583;48.714;9.386;2022-10-23T09:31:14;18.30;70.20
44851;DHT22;30583;48.714;9.386;2022-10-23T09:33:40;19.60;65.50
44851;DHT22;30583;48.714;9.386;2022-10-23T09:36:18;20.20;62.50
44851;DHT22;30583;48.714;9.386;2022-10-23T09:41:17;20.60;60.60
44851;DHT22;30583;48.714;9.386;2022-10-23T09:43:43;20.70;60.40
44851;DHT22;30583;48.714;9.386;2022-10-23T09:46:09;20.80;60.00
44851;DHT22;30583;48.714;9.386;2022-10-23T09:48:37;20.90;59.70
44851;DHT22;30583;48.714;9.386;2022-10-23T09:51:19;20.90;59.70
44851;DHT22;30583;48.714;9.386;2022-10-23T09:53:52;21.00;59.70
44851;DHT22;30583;48.714;9.386;2022-10-23T09:56:39;21.00;59.50
44851;DHT22;30583;48.714;9.386;2022-10-23T10:04:16;20.70;59.50
44851;DHT22;30583;48.714;9.386;2022-10-23T10:06:43;21.10;59.50
44851;DHT22;30583;48.714;9.386;2022-10-23T10:09:13;21.10;59.10
44851;DHT22;30583;48.714;9.386;2022-10-23T10:11:45;20.80;60.20
44851;DHT22;30583;48.714;9.386;2022-10-23T10:18:00;20.30;62.00
44851;DHT22;30583;48.714;9.386;2022-10-23T10:20:23;20.40;61.40
44851;DHT22;30583;48.714;9.386;2022-10-23T10:22:55;20.40;61.50
44851;DHT22;30583;48.714;9.386;2022-10-23T10:25:49;20.40;61.50
44851;DHT22;30583;48.714;9.386;2022-10-23T10:38:49;20.50;62.00
44851;DHT22;30583;48.714;9.386;2022-10-23T10:44:11;20.60;61.80
44851;DHT22;30583;48.714;9.386;2022-10-23T10:46:54;20.80;61.70
44851;DHT22;30583;48.714;9.386;2022-10-23T10:49:52;21.00;61.10
44851;DHT22;30583;48.714;9.386;2022-10-23T10:53:27;20.90;60.80
44851;DHT22;30583;48.714;9.386;2022-10-23T10:55:37;20.90;60.40
44851;DHT22;30583;48.714;9.386;2022-10-23T10:58:18;20.70;62.50
44851;DHT22;30583;48.714;9.386;2022-10-23T11:00:47;21.30;62.00
44851;DHT22;30583;48.714;9.386;2022-10-23T11:03:33;21.30;61.60
44851;DHT22;30583;48.714;9.386;2022-10-23T11:06:02;21.50;60.50
44851;DHT22;30583;48.714;9.386;2022-10-23T11:08:37;21.50;60.10
44851;DHT22;30583;48.714;9.386;2022-10-23T11:11:20;21.50;59.20
44851;DHT22;30583;48.714;9.386;2022-10-23T11:13:49;21.20;62.00
44851;DHT22;30583;48.714;9.386;2022-10-23T11:16:30;20.80;61.80
44851;DHT22;30583;48.714;9.386;2022-10-23T11:19:29;20.50;62.90
44851;DHT22;30583;48.714;9.386;2022-10-23T11:30:56;20.50;63.90
44851;DHT22;30583;48.714;9.386;2022-10-23T11:33:50;20.40;64.10
44851;DHT22;30583;48.714;9.386;2022-10-23T11:37:04;20.40;64.50
44851;DHT22;30583;48.714;9.386;2022-10-23T11:41:52;20.00;64.80
44851;DHT22;30583;48.714;9.386;2022-10-23T11:44:45;19.90;65.00
44851;DHT22;30583;48.714;9.386;2022-10-23T11:47:38;19.90;65.50
44851;DHT22;30583;48.714;9.386;2022-10-23T11:53:24;19.80;65.50
44851;DHT22;30583;48.714;9.386;2022-10-23T11:55:26;20.00;65.40
44851;DHT22;30583;48.714;9.386;2022-10-23T11:58:22;19.70;65.80
44851;DHT22;30583;48.714;9.386;2022-10-23T12:00:56;19.80;66.30
44851;DHT22;30583;48.714;9.386;2022-10-23T12:03:31;19.80;65.40
44851;DHT22;30583;48.714;9.386;2022-10-23T12:06:03;20.00;65.10
44851;DHT22;30583;48.714;9.386;2022-10-23T12:08:33;20.20;65.80
44851;DHT22;30583;48.714;9.386;2022-10-23T12:10:59;20.30;65.40
44851;DHT22;30583;48.714;9.386;2022-10-23T12:16:03;20.70;64.90
44851;DHT22;30583;48.714;9.386;2022-10-23T12:18:30;20.50;63.50
44851;DHT22;30583;48.714;9.386;2022-10-23T12:21:00;20.40;63.50
44851;DHT22;30583;48.714;9.386;2022-10-23T12:26:43;20.50;63.90
44851;DHT22;30583;48.714;9.386;2022-10-23T12:29:40;20.40;63.10
44851;DHT22;30583;48.714;9.386;2022-10-23T12:35:08;20.40;63.80
44851;DHT22;30583;48.714;9.386;2022-10-23T12:40:11;20.70;62.80
44851;DHT22;30583;48.714;9.386;2022-10-23T12:42:40;20.70;62.80
44851;DHT22;30583;48.714;9.386;2022-10-23T12:45:25;20.90;64.10
44851;DHT22;30583;48.714;9.386;2022-10-23T12:47:52;20.70;64.00
44851;DHT22;30583;48.714;9.386;2022-10-23T12:50:21;20.70;62.30
44851;DHT22;30583;48.714;9.386;2022-10-23T12:53:06;21.00;64.10
44851;DHT22;30583;48.714;9.386;2022-10-23T12:55:56;21.20;64.00
44851;DHT22;30583;48.714;9.386;2022-10-23T12:58:28;21.50;64.70
44851;DHT22;30583;48.714;9.386;2022-10-23T13:00:59;21.80;62.30
44851;DHT22;30583;48.714;9.386;2022-10-23T13:03:27;22.10;63.00
44851;DHT22;30583;48.714;9.386;2022-10-23T13:05:54;22.40;61.20
44851;DHT22;30583;48.714;9.386;2022-10-23T13:08:26;22.30;61.80
44851;DHT22;30583;48.714;9.386;2022-10-23T13:10:53;22.20;62.20
44851;DHT22;30583;48.714;9.386;2022-10-23T13:13:21;22.60;59.70
44851;DHT22;30583;48.714;9.386;2022-10-23T13:15:48;22.90;59.30
44851;DHT22;30583;48.714;9.386;2022-10-23T13:18:14;22.80;59.10
44851;DHT22;30583;48.714;9.386;2022-10-23T13:20:43;22.70;60.50
44851;DHT22;30583;48.714;9.386;2022-10-23T13:23:33;22.80;62.00
44851;DHT22;30583;48.714;9.386;2022-10-23T13:28:40;23.40;60.40
44851;DHT22;30583;48.714;9.386;2022-10-23T13:33:44;23.50;60.40
44851;DHT22;30583;48.714;9.386;2022-10-23T13:38:40;23.40;59.80
44851;DHT22;30583;48.714;9.386;2022-10-23T13:41:19;23.10;59.00
44851;DHT22;30583;48.714;9.386;2022-10-23T13:43:46;22.70;59.50
44851;DHT22;30583;48.714;9.386;2022-10-23T13:46:16;22.70;60.30
44851;DHT22;30583;48.714;9.386;2022-10-23T13:48:42;22.90;61.50
44851;DHT22;30583;48.714;9.386;2022-10-23T13:51:14;22.70;60.60
44851;DHT22;30583;48.714;9.386;2022-10-23T13:53:40;22.40;62.30
44851;DHT22;30583;48.714;9.386;2022-10-23T13:56:08;22.20;61.90
44851;DHT22;30583;48.714;9.386;2022-10-23T13:58:34;22.00;61.30
44851;DHT22;30583;48.714;9.386;2022-10-23T14:01:00;21.80;61.70
44851;DHT22;30583;48.714;9.386;2022-10-23T14:03:26;21.70;62.30
44851;DHT22;30583;48.714;9.386;2022-10-23T14:05:52;21.80;61.40
44851;DHT22;30583;48.714;9.386;2022-10-23T14:08:18;21.60;62.30
44851;DHT22;30583;48.714;9.386;2022-10-23T14:10:44;21.50;63.50
44851;DHT22;30583;48.714;9.386;2022-10-23T14:13:10;21.50;63.30
44851;DHT22;30583;48.714;9.386;2022-10-23T14:15:35;21.30;64.20
44851;DHT22;30583;48.714;9.386;2022-10-23T14:18:01;21.20;64.00
44851;DHT22;30583;48.714;9.386;2022-10-23T14:20:27;21.20;64.00
44851;DHT22;30583;48.714;9.386;2022-10-23T14:22:53;21.20;64.30
44851;DHT22;30583;48.714;9.386;2022-10-23T14:25:18;21.10;64.60
44851;DHT22;30583;48.714;9.386;2022-10-23T14:27:44;21.00;64.70
44851;DHT22;30583;48.714;9.386;2022-10-23T14:30:10;21.00;65.00
44851;DHT22;30583;48.714;9.386;2022-10-23T14:32:36;21.00;65.20
44851;DHT22;30583;48.714;9.386;2022-10-23T14:35:02;20.90;65.40
44851;DHT22;30583;48.714;9.386;2022-10-23T14:37:33;20.80;66.80
44851;DHT22;30583;48.714;9.386;2022-10-23T14:39:59;21.00;66.80
44851;DHT22;30583;48.714;9.386;2022-10-23T14:42:25;20.90;67.20
44851;DHT22;30583;48.714;9.386;2022-10-23T14:44:51;20.80;67.60
44851;DHT22;30583;48.714;9.386;2022-10-23T14:47:17;20.70;68.60
44851;DHT22;30583;48.714;9.386;2022-10-23T14:49:47;20.80;69.00
44851;DHT22;30583;48.714;9.386;2022-10-23T14:52:14;20.70;69.40
44851;DHT22;30583;48.714;9.386;2022-10-23T14:54:40;20.90;69.10
44851;DHT22;30583;48.714;9.386;2022-10-23T14:57:06;20.90;68.80
44851;DHT22;30583;48.714;9.386;2022-10-23T14:59:31;20.90;69.10
44851;DHT22;30583;48.714;9.386;2022-10-23T15:01:57;21.00;70.00
44851;DHT22;30583;48.714;9.386;2022-10-23T15:04:23;20.90;70.20
44851;DHT22;30583;48.714;9.386;2022-10-23T15:06:48;20.60;71.90
44851;DHT22;30583;48.714;9.386;2022-10-23T15:09:14;20.70;72.00
44851;DHT22;30583;48.714;9.386;2022-10-23T15:11:40;20.60;72.00
44851;DHT22;30583;48.714;9.386;2022-10-23T15:14:07;20.60;72.50
44851;DHT22;30583;48.714;9.386;2022-10-23T15:16:32;20.70;73.30
44851;DHT22;30583;48.714;9.386;2022-10-23T15:19:08;20.60;73.70
44851;DHT22;30583;48.714;9.386;2022-10-23T15:21:34;20.70;74.10
44851;DHT22;30583;48.714;9.386;2022-10-23T15:24:00;20.50;73.50
44851;DHT22;30583;48.714;9.386;2022-10-23T15:26:26;20.50;73.10
44851;DHT22;30583;48.714;9.386;2022-10-23T15:28:54;20.50;72.70
44851;DHT22;30583;48.714;9.386;2022-10-23T15:31:41;20.50;73.10
44851;DHT22;30583;48.714;9.386;2022-10-23T15:34:10;20.40;73.90
44851;DHT22;30583;48.714;9.386;2022-10-23T15:36:36;20.30;74.50
44851;DHT22;30583;48.714;9.386;2022-10-23T15:39:05;20.30;74.50
44851;DHT22;30583;48.714;9.386;2022-10-23T15:41:33;20.30;75.00
44851;DHT22;30583;48.714;9.386;2022-10-23T15:44:00;20.20;75.20
44851;DHT22;30583;48.714;9.386;2022-10-23T15:46:27;20.10;75.50
44851;DHT22;30583;48.714;9.386;2022-10-23T15:48:52;20.00;75.80
44851;DHT22;30583;48.714;9.386;2022-10-23T15:51:18;20.00;76.20
44851;DHT22;30583;48.714;9.386;2022-10-23T15:53:44;20.00;75.90
44851;DHT22;30583;48.714;9.386;2022-10-23T15:56:09;20.10;75.60
44851;DHT22;30583;48.714;9.386;2022-10-23T15:58:35;20.10;75.70
44851;DHT22;30583;48.714;9.386;2022-10-23T16:01:02;20.00;75.70
44851;DHT22;30583;48.714;9.386;2022-10-23T16:03:31;19.90;75.30
44851;DHT22;30583;48.714;9.386;2022-10-23T16:05:57;19.90;75.20
44851;DHT22;30583;48.714;9.386;2022-10-23T16:08:23;19.80;75.30
44851;DHT22;30583;48.714;9.386;2022-10-23T16:10:50;19.80;75.40
44851;DHT22;30583;48.714;9.386;2022-10-23T16:13:16;19.70;75.70
44851;DHT22;30583;48.714;9.386;2022-10-23T16:15:41;19.70;75.80
44851;DHT22;30583;48.714;9.386;2022-10-23T16:18:07;19.40;76.60
44851;DHT22;30583;48.714;9.386;2022-10-23T16:20:33;19.60;76.20
44851;DHT22;30583;48.714;9.386;2022-10-23T16:22:59;19.60;76.20
44851;DHT22;30583;48.714;9.386;2022-10-23T16:25:24;19.40;76.60
44851;DHT22;30583;48.714;9.386;2022-10-23T16:27:50;19.30;77.20
44851;DHT22;30583;48.714;9.386;2022-10-23T16:30:15;19.30;77.60
44851;DHT22;30583;48.714;9.386;2022-10-23T16:32:41;19.30;77.70
44851;DHT22;30583;48.714;9.386;2022-10-23T16:35:07;19.20;78.40
44851;DHT22;30583;48.714;9.386;2022-10-23T16:37:33;19.30;78.20
44851;DHT22;30583;48.714;9.386;2022-10-23T16:39:58;19.10;78.50
44851;DHT22;30583;48.714;9.386;2022-10-23T16:42:26;19.10;78.10
44851;DHT22;30583;48.714;9.386;2022-10-23T16:44:51;19.00;78.50
44851;DHT22;30583;48.714;9.386;2022-10-23T16:47:17;19.10;78.60
44851;DHT22;30583;48.714;9.386;2022-10-23T16:49:43;19.00;78.20
44851;DHT22;30583;48.714;9.386;2022-10-23T16:52:09;19.00;78.00
44851;DHT22;30583;48.714;9.386;2022-10-23T16:54:34;19.00;78.00
44851;DHT22;30583;48.714;9.386;2022-10-23T16:57:00;19.10;77.70
44851;DHT22;30583;48.714;9.386;2022-10-23T16:59:26;18.90;78.10
44851;DHT22;30583;48.714;9.386;2022-10-23T17:01:51;18.80;78.50
44851;DHT22;30583;48.714;9.386;2022-10-23T17:04:17;18.90;78.30
44851;DHT22;30583;48.714;9.386;2022-10-23T17:06:43;18.80;78.90